Marathon, FL

2:30 PM EDT on April 19, 2015 (GMT -0400)
Key West Naval Air Station | | Change Station
CLOSE
Current Station
Airport
Location: Key West NAF,
Elevation: 7 ft
Nearby Weather Stations

Elev 7 ft 24.58 °N, 81.69 °W | Updated 37 minutes ago

Clear
Clear
85 °F
Feels Like 92 °F
N
14
Wind Variable Wind from SSE

Today
High -- | Low -- °F
--% Chance of Precip.
Yesterday
High -- | Low -- °F
Precip. -- in
6:58 AM 7:47 PM
New Moon, 1% visible
Pressure 29.95 in
Visibility 10.0 miles
Clouds Few 2000 ft
Scattered Clouds 4500 ft
Scattered Clouds 12000 ft
Heat Index 92 °F
Dew Point 74 °F
Humidity 69%
Rainfall 0.00 in
Snow Depth Not available.
UV 13 out of 12
Pollen 6.70 out of 12
Air Quality Not available.
Flu Activity Local Activity
METAR KNQX 191753Z 16012KT 10SM FEW020 SCT045 SCT120 29/23 A2995 RMK AO2 SLP141 T02940233 10306 20261 56011 $

More Conditions Fewer Conditions

Pressure 29.95 in
Visibility 10.0 miles
Clouds Few 2000 ft
Scattered Clouds 4500 ft
Scattered Clouds 12000 ft
Heat Index 92 °F
Dew Point 74 °F
Humidity 69%
Rainfall 0.00 in
Snow Depth Not available.
UV 13 out of 12
Pollen 6.70 out of 12
Air Quality Not available.
Flu Activity Local Activity
METAR KNQX 191753Z 16012KT 10SM FEW020 SCT045 SCT120 29/23 A2995 RMK AO2 SLP141 T02940233 10306 20261 56011 $

More Conditions Fewer Conditions

10-Day Weather Forecast

Almanac

Astronomy

Apr. 19, 2015 Rise Set
Actual Time
Civil Twilight
Nautical Twilight
Astronomical Twilight
Moon
Length of Visible Light
Length of Day
Tomorrow will be .
, % of the Moon is Illuminated

Today's Extremes

State Highs State Lows

Community

WunderPhotos

Upload Photos

1,814,900 photos uploaded!

WunderBlogs® & News

Nearby

Air Quality

  Air Quality AQ Index Pollutant
Not available.

Snow Depth

Station Depth Elevation

Earthquake Activity

City Distance Mag. Time & Date
Minimum magnitude displayed is 2.5.

Coastal Water Temperatures

Place Temperature

Stations

Nearby Weather Stations

Station Location Temp. Windchill Dew Point Humidity Wind Precip. Elev Updated Type